Previous Day
Next Day
Current Day
SHEF ID: FVSO2 FAIRVIEW
STATION TYPE: Mesonet
PRECIP AIR-TEMP WIND-DIRWIND-SPEED REL-HUMID SOLAR-RAD
in F deg mph % W/m2
Raw-Meson Raw-Meson Raw-Meson Raw-Meson Raw-Meson Raw-Meson
(US/Central)
06/07 00:00 0.00 69.03 152.00 5.87 94.50 0.00
06/07 01:00 0.00 68.22 140.75 5.04 96.00 0.00
06/07 02:00 0.00 67.78 152.75 3.53 97.00 0.00
06/07 03:00 0.00 67.06 120.75 3.69 97.50 0.00
06/07 04:00 0.00 65.75 154.25 3.08 98.00 0.00
06/07 05:00 0.00 65.57 137.00 2.96 99.00 0.00
06/07 06:00 0.00 66.20 146.75 3.63 99.00 0.00
06/07 07:00 0.00 66.11 153.25 5.43 99.50 15.00
06/07 08:00 0.00 66.51 120.50 3.08 100.00 101.75
06/07 09:00 0.00 68.09 99.25 2.51 99.75 266.75
06/07 10:00 0.00 74.39 123.25 6.43 84.50 388.75
06/07 11:00 0.00 74.03 103.75 13.14 85.75 133.75
06/07 12:00 0.00 69.75 116.50 12.64 93.00 142.50
06/07 13:00 0.00 73.89 127.25 10.29 79.00 313.25
06/07 14:00 0.00 77.27 159.50 9.39 71.50 541.75
06/07 15:00 0.00 79.75 162.75 9.62 66.00 708.50
06/07 16:00 0.00 82.67 161.75 7.33 61.25 842.50
06/07 17:00 0.00 84.92 135.25 7.71 56.00 610.75
06/07 18:00 0.00 85.91 106.25 9.06 52.00 557.75
06/07 19:00 ---- 84.97 117.00 10.35 52.75 326.25
06/07 20:00 ---- ---- ---- ---- ---- ----
06/07 21:00 ---- ---- ---- ---- ---- ----
06/07 22:00 ---- ---- ---- ---- ---- ----
06/07 23:00 ---- ---- ---- ---- ---- ----